LBSF/SOF METAR and TAF weather

Enter ICAO airport designator
Station Type Date Time Source
LBSF METAR 2021/04/17 01:00 UTC NOAA

LBSF 170100Z 13011KT 9999 -RA FEW022 BKN028 OVC034 05/02 Q1018 NOSIG


Station Type Date Time Source
LBSF Decoded METAR 2021/04/17 01:00 UTC NOAA

Sofia Observ. , Bulgaria (LBSF) 42-39N 023-23E 595M
Apr 16, 2021 - 09:00 PM EDT / 2021.04.17 0100 UTC
Wind: from the SE (130 degrees) at 13 MPH (11 KT):0
Visibility: greater than 7 mile(s):0
Sky conditions: overcast
Weather: light rain
Temperature: 41 F (5 C)
Dew Point: 35 F (2 C)
Relative Humidity: 80%
Pressure (altimeter): 30.06 in. Hg (1018 hPa)
ob: LBSF 170100Z 13011KT 9999 -RA FEW022 BKN028 OVC034 05/02 Q1018 NOSIG
cycle: 1

Station Type Date Time Source
LBSF TAF 2021/04/16 18:18 UTC NOAA

TAF LBSF 161700Z 1618/1718 05008KT 9999 SCT050 BKN085
TEMPO 1701/1706 RA SCT015 BKN040
BECMG 1706/1708 11012KT
TEMPO 1708/1718 5000 RA BKN015 OVC030

Example: see airport list